Portada
METAR-TAF:

METAR-TAF

Aeropuertos :

San Ignacio de Velasco, Bolivia

latitud: 16-23S, longitud: 060-58W, altitud: 413 m

Observación

El informe se hizo hace 55 minutos, a las 18:00 UTC
Viento 5 kt del norte
Temperatura 35°C
Humedad 50%
Presión 1009 hPa
Visibilidad 10 km o más
Nubes dispersas a una altura de 1700 ft
Escasas nubes a una altura de 2500 ft, Cumulonimbus.

METAR: SLSI 271800Z 36005KT 9999 SCT017 FEW025CB 35/23 Q1009

Hora: 14:55 (18:55 UTC)


TAF: falta

Observaciones y pronósticos meteorológicos de más de 4000 aeropuertos (mensajes METAR y TAF).

Los puntos amarillos y rojos representan las estaciones disponibles.

Ponga el ratón en el punto deseado para ver el nombre de la estación.

Haga clic para ver las observaciones y los pronósticos meteorológicos.

Para cambiar el mapa : haga clic en los botones verdes con una cruz de color negro para hacer un zoom, en el botón verde con un guión para alejar o en las flechas verdes para mapas adyacentes.


METAR-TAF: